createdAt,value
2022-09-18T00:01:42.512Z,99914.40
2022-09-18T00:04:14.301Z,99906.60
2022-09-18T00:06:45.472Z,99906.00
2022-09-18T00:09:16.223Z,99905.00
2022-09-18T00:11:48.457Z,99901.60
2022-09-18T00:14:23.672Z,99900.20
2022-09-18T00:16:52.897Z,99898.00
2022-09-18T00:19:22.091Z,99904.20
2022-09-18T00:21:51.912Z,99904.40
2022-09-18T00:24:22.501Z,99907.60
2022-09-18T00:26:51.437Z,99903.60
2022-09-18T00:29:20.222Z,99900.60
2022-09-18T00:31:48.853Z,99900.60
2022-09-18T00:34:17.596Z,99898.80
2022-09-18T00:36:46.181Z,99899.60
2022-09-18T00:39:14.976Z,99901.00
2022-09-18T00:41:44.512Z,99908.80
2022-09-18T00:44:32.457Z,99906.80
2022-09-18T00:47:09.908Z,99907.00
2022-09-18T00:49:56.925Z,99907.60
2022-09-18T00:52:32.266Z,99905.20
2022-09-18T00:55:09.850Z,99902.80
2022-09-18T00:57:43.653Z,99901.40
2022-09-18T01:00:13.512Z,99902.60
2022-09-18T01:02:44.925Z,99903.60
2022-09-18T01:05:16.175Z,99895.00
2022-09-18T01:08:25.799Z,99899.20
2022-09-18T01:11:31.689Z,99899.40
2022-09-18T01:14:36.940Z,99896.20
2022-09-18T01:17:16.402Z,99893.00
2022-09-18T01:20:17.977Z,99897.60
2022-09-18T01:23:17.436Z,99899.00
2022-09-18T01:26:38.553Z,99903.00
2022-09-18T01:29:27.926Z,99900.40
2022-09-18T01:32:25.184Z,99897.60
2022-09-18T01:35:39.543Z,99904.40
2022-09-18T01:38:28.400Z,99898.60
2022-09-18T01:41:12.167Z,99911.00
2022-09-18T01:43:42.651Z,99908.80
2022-09-18T01:46:16.919Z,99905.40
2022-09-18T01:48:58.784Z,99904.60
2022-09-18T01:51:40.269Z,99907.60
2022-09-18T01:54:27.699Z,99908.80
2022-09-18T01:57:41.051Z,99917.80
2022-09-18T02:00:14.068Z,99909.40
2022-09-18T02:03:02.428Z,99908.00
2022-09-18T02:05:41.019Z,99906.00
2022-09-18T02:08:39.268Z,99903.00
2022-09-18T02:11:12.748Z,99900.00
2022-09-18T02:14:05.929Z,99900.60
2022-09-18T02:17:03.490Z,99898.60
2022-09-18T02:19:42.936Z,99904.80
2022-09-18T02:22:17.250Z,99902.00
2022-09-18T02:24:52.277Z,99904.80
2022-09-18T02:27:25.707Z,99902.00
2022-09-18T02:29:56.569Z,99904.20
2022-09-18T02:32:25.109Z,99901.20
2022-09-18T02:34:54.101Z,99903.00
2022-09-18T02:38:08.458Z,99901.60
2022-09-18T02:41:03.050Z,99897.00
2022-09-18T02:43:42.591Z,99895.00
2022-09-18T02:46:52.204Z,99889.00
2022-09-18T02:49:49.493Z,99892.40
2022-09-18T02:52:33.034Z,99889.80
2022-09-18T02:55:12.063Z,99893.80
2022-09-18T02:58:07.375Z,99897.60
2022-09-18T03:00:36.778Z,99896.60
2022-09-18T03:03:18.998Z,99897.40
2022-09-18T03:05:57.803Z,99895.80
2022-09-18T03:08:26.661Z,99890.20
2022-09-18T03:10:55.295Z,99890.20
2022-09-18T03:13:23.865Z,99895.00
2022-09-18T03:15:52.454Z,99889.20
2022-09-18T03:18:20.928Z,99892.80
2022-09-18T03:20:50.231Z,99890.40
2022-09-18T03:23:18.929Z,99895.60
2022-09-18T03:25:51.327Z,99900.40
2022-09-18T03:28:19.977Z,99899.80
2022-09-18T03:30:50.300Z,99902.40
2022-09-18T03:33:18.784Z,99900.60
2022-09-18T03:35:47.265Z,99905.00
2022-09-18T03:38:15.951Z,99900.00
2022-09-18T03:40:47.695Z,99902.20
2022-09-18T03:43:16.911Z,99906.60
2022-09-18T03:45:45.495Z,99905.20
2022-09-18T03:48:14.900Z,99909.60
2022-09-18T03:50:43.483Z,99916.80
2022-09-18T03:53:12.475Z,99916.80
2022-09-18T03:55:52.734Z,99911.80
2022-09-18T03:58:42.208Z,99916.80
2022-09-18T04:01:29.354Z,99921.40
2022-09-18T04:04:20.760Z,99924.00
2022-09-18T04:07:09.197Z,99931.20
2022-09-18T04:10:04.303Z,99938.40
2022-09-18T04:12:32.888Z,99944.20
2022-09-18T04:15:19.333Z,99947.00
2022-09-18T04:17:48.900Z,99947.40
2022-09-18T04:20:17.586Z,99949.40
2022-09-18T04:22:46.293Z,99951.40
2022-09-18T04:25:14.959Z,99949.40
2022-09-18T04:27:43.669Z,99952.00
2022-09-18T04:30:13.050Z,99956.60
2022-09-18T04:32:44.764Z,99957.80
2022-09-18T04:35:13.291Z,99962.80
2022-09-18T04:37:44.344Z,99965.20
2022-09-18T04:40:13.830Z,99968.80
2022-09-18T04:42:42.832Z,99966.60
2022-09-18T04:45:11.931Z,99972.40
2022-09-18T04:47:43.892Z,99972.00
2022-09-18T04:50:12.581Z,99969.80
2022-09-18T04:53:01.029Z,99967.40
2022-09-18T04:55:30.637Z,99974.60
2022-09-18T04:57:59.430Z,99982.20
2022-09-18T05:00:29.212Z,99980.60
2022-09-18T05:03:00.491Z,99989.60
2022-09-18T05:05:29.788Z,99990.60
2022-09-18T05:08:00.447Z,99994.80
2022-09-18T05:10:29.210Z,99994.00
2022-09-18T05:12:58.410Z,99995.20
2022-09-18T05:15:28.223Z,99998.40
2022-09-18T05:18:10.659Z,100004.00
2022-09-18T05:20:40.384Z,100002.60
2022-09-18T05:23:09.848Z,100007.20
2022-09-18T05:25:38.534Z,100006.40
2022-09-18T05:28:07.221Z,100008.00
2022-09-18T05:30:43.486Z,100005.00
2022-09-18T05:33:13.141Z,100008.80
2022-09-18T05:35:43.217Z,100005.20
2022-09-18T05:38:12.357Z,100006.40
2022-09-18T05:40:44.684Z,100008.80
2022-09-18T05:43:13.166Z,100016.40
2022-09-18T05:45:43.184Z,100014.80
2022-09-18T05:48:17.812Z,100020.00
2022-09-18T05:50:46.709Z,100014.60
2022-09-18T05:53:20.288Z,100019.80
2022-09-18T05:56:18.175Z,100023.40
2022-09-18T05:58:46.764Z,100024.80
2022-09-18T06:01:15.681Z,100026.60
2022-09-18T06:04:16.498Z,100030.40
2022-09-18T06:06:53.576Z,100024.40
2022-09-18T06:09:22.497Z,100034.60
2022-09-18T06:11:51.358Z,100031.80
2022-09-18T06:14:20.253Z,100034.00
2022-09-18T06:16:49.399Z,100038.80
2022-09-18T06:19:18.354Z,100039.20
2022-09-18T06:21:48.973Z,100042.20
2022-09-18T06:24:19.093Z,100042.20
2022-09-18T06:27:08.262Z,100045.20
2022-09-18T06:29:36.869Z,100050.40
2022-09-18T06:32:11.455Z,100052.60
2022-09-18T06:34:41.495Z,100051.80
2022-09-18T06:37:13.696Z,100051.00
2022-09-18T06:39:45.892Z,100054.00
2022-09-18T06:42:21.072Z,100055.80
2022-09-18T06:45:13.612Z,100064.00
2022-09-18T06:47:42.273Z,100062.20
2022-09-18T06:50:11.395Z,100063.00
2022-09-18T06:52:39.980Z,100067.00
2022-09-18T06:55:09.427Z,100068.80
2022-09-18T06:57:37.975Z,100066.60
2022-09-18T07:00:08.232Z,100063.80
2022-09-18T07:02:39.308Z,100070.80
2022-09-18T07:05:29.508Z,100070.80
2022-09-18T07:07:59.956Z,100067.80
2022-09-18T07:10:29.670Z,100072.80
2022-09-18T07:13:02.495Z,100071.80
2022-09-18T07:15:32.749Z,100074.60
2022-09-18T07:18:07.109Z,100077.60
2022-09-18T07:20:35.787Z,100078.20
2022-09-18T07:23:05.284Z,100072.20
2022-09-18T07:25:47.899Z,100079.40
2022-09-18T07:28:16.688Z,100080.80
2022-09-18T07:30:54.959Z,100085.00
2022-09-18T07:33:23.481Z,100091.40
2022-09-18T07:35:53.089Z,100086.40
2022-09-18T07:38:23.928Z,100094.00
2022-09-18T07:40:55.379Z,100091.40
2022-09-18T07:43:35.131Z,100091.40
2022-09-18T07:46:03.813Z,100095.00
2022-09-18T07:48:36.172Z,100090.20
2022-09-18T07:51:12.039Z,100090.80
2022-09-18T07:53:41.546Z,100090.40
2022-09-18T07:56:12.117Z,100092.40
2022-09-18T07:58:41.122Z,100089.20
2022-09-18T08:01:16.829Z,100091.00
2022-09-18T08:03:51.883Z,100090.20
2022-09-18T08:06:20.751Z,100087.40
2022-09-18T08:08:57.015Z,100084.40
2022-09-18T08:11:36.760Z,100074.40
2022-09-18T08:14:25.353Z,100071.00
2022-09-18T08:17:15.504Z,100068.40
2022-09-18T08:20:16.652Z,100070.40
2022-09-18T08:22:48.516Z,100074.80
2022-09-18T08:25:18.530Z,100070.40
2022-09-18T08:27:49.777Z,100071.40
2022-09-18T08:30:27.578Z,100075.60
2022-09-18T08:33:00.695Z,100075.80
2022-09-18T08:35:32.107Z,100073.20
2022-09-18T08:38:08.286Z,100064.00
2022-09-18T08:41:14.658Z,100052.20
2022-09-18T08:44:02.904Z,100046.20
2022-09-18T08:46:55.488Z,100039.40
2022-09-18T08:49:30.528Z,100032.20
2022-09-18T08:52:11.022Z,100035.80
2022-09-18T08:55:16.290Z,100023.60
2022-09-18T08:58:14.571Z,100016.80
2022-09-18T09:01:08.689Z,100004.20
2022-09-18T09:03:49.428Z,100009.40
2022-09-18T09:06:49.246Z,99999.60
2022-09-18T09:09:42.484Z,100020.00
2022-09-18T09:13:13.454Z,100022.80
2022-09-18T09:16:05.017Z,100022.80
2022-09-18T09:19:02.601Z,100019.00
2022-09-18T09:21:44.542Z,100025.60
2022-09-18T09:24:33.415Z,100029.40
2022-09-18T09:27:38.537Z,100032.00
2022-09-18T09:30:31.223Z,100030.60
2022-09-18T09:33:45.236Z,100041.20
2022-09-18T09:36:30.821Z,100037.40
2022-09-18T09:39:21.215Z,100040.60
2022-09-18T09:41:54.000Z,100049.40
2022-09-18T09:44:53.410Z,100052.20
2022-09-18T09:47:45.030Z,100057.80
2022-09-18T09:51:02.152Z,100055.60
2022-09-18T09:53:31.865Z,100057.20
2022-09-18T09:56:30.860Z,100057.80
2022-09-18T09:59:20.232Z,100050.20
2022-09-18T10:02:58.655Z,100052.80
2022-09-18T10:05:56.757Z,100056.40
2022-09-18T10:08:42.621Z,100057.00
2022-09-18T10:11:13.481Z,100058.60
2022-09-18T10:13:55.877Z,100054.20
2022-09-18T10:16:31.602Z,100056.20
2022-09-18T10:19:01.755Z,100069.60
2022-09-18T10:21:35.840Z,100071.40
2022-09-18T10:24:40.078Z,100074.20
2022-09-18T10:27:13.885Z,100074.40
2022-09-18T10:29:44.105Z,100080.20
2022-09-18T10:32:34.473Z,100085.80
2022-09-18T10:35:29.093Z,100084.20
2022-09-18T10:37:59.544Z,100083.00
2022-09-18T10:40:40.457Z,100085.00
2022-09-18T10:43:18.858Z,100086.60
2022-09-18T10:45:56.527Z,100089.00
2022-09-18T10:48:44.754Z,100083.00
2022-09-18T10:51:21.152Z,100084.60
2022-09-18T10:54:15.407Z,100094.00
2022-09-18T10:57:33.459Z,100096.40
2022-09-18T11:00:37.324Z,100094.40
2022-09-18T11:03:41.176Z,100093.00
2022-09-18T11:06:25.633Z,100095.00
2022-09-18T11:09:01.548Z,100097.40
2022-09-18T11:11:43.997Z,100097.20
2022-09-18T11:14:25.321Z,100085.80
2022-09-18T11:17:07.109Z,100083.60
2022-09-18T11:19:40.573Z,100078.40
2022-09-18T11:22:44.669Z,100077.80
2022-09-18T11:25:30.317Z,100068.00
2022-09-18T11:28:31.734Z,100069.40
2022-09-18T11:31:16.506Z,100056.60
2022-09-18T11:33:53.588Z,100054.00
2022-09-18T11:36:33.166Z,100053.20
2022-09-18T11:39:13.068Z,100056.80
2022-09-18T11:41:42.986Z,100053.60
2022-09-18T11:44:11.365Z,100054.80
2022-09-18T11:47:05.121Z,100047.20
2022-09-18T11:49:42.443Z,100052.80
2022-09-18T11:52:37.023Z,100051.40
2022-09-18T11:55:35.610Z,100050.40
2022-09-18T11:58:27.339Z,100053.60
2022-09-18T12:01:39.081Z,100055.80
2022-09-18T12:04:16.734Z,100050.60
2022-09-18T12:07:04.776Z,100045.00
2022-09-18T12:10:01.899Z,100034.00
2022-09-18T12:12:40.869Z,100034.60
2022-09-18T12:15:21.851Z,100038.60
2022-09-18T12:17:58.372Z,100041.00
2022-09-18T12:20:34.813Z,100040.60
2022-09-18T12:23:05.104Z,100048.40
2022-09-18T12:26:10.466Z,100028.00
2022-09-18T12:29:05.194Z,100032.00
2022-09-18T12:32:24.773Z,100036.60
2022-09-18T12:35:30.423Z,100040.40
2022-09-18T12:38:50.780Z,100033.00
2022-09-18T12:41:51.307Z,100031.00
2022-09-18T12:44:53.080Z,100037.40
2022-09-18T12:47:33.840Z,100045.60
2022-09-18T12:50:48.803Z,100049.20
2022-09-18T12:53:56.709Z,100048.60
2022-09-18T12:56:43.210Z,100039.40
2022-09-18T12:59:42.308Z,100051.20
2022-09-18T13:02:32.809Z,100049.00
2022-09-18T13:05:28.933Z,100060.00
2022-09-18T13:08:21.578Z,100088.00
2022-09-18T13:10:56.919Z,100099.60
2022-09-18T13:13:54.481Z,100102.80
2022-09-18T13:16:41.262Z,100092.40
2022-09-18T13:19:28.368Z,100096.20
2022-09-18T13:22:02.426Z,100094.00
2022-09-18T13:24:36.064Z,100087.00
2022-09-18T13:27:12.107Z,100082.40
2022-09-18T13:29:53.403Z,100078.60
2022-09-18T13:32:36.584Z,100087.20
2022-09-18T13:35:21.257Z,100083.40
2022-09-18T13:38:23.326Z,100090.40
2022-09-18T13:41:10.147Z,100083.40
2022-09-18T13:43:46.423Z,100077.60
2022-09-18T13:46:36.867Z,100079.40
2022-09-18T13:49:23.189Z,100078.00
2022-09-18T13:51:51.772Z,100065.80
2022-09-18T13:54:29.296Z,100066.60
2022-09-18T13:57:04.235Z,100068.80
2022-09-18T14:00:09.542Z,100056.20
2022-09-18T14:02:41.812Z,100055.20
2022-09-18T14:05:30.450Z,100043.40
2022-09-18T14:08:04.658Z,100039.00
2022-09-18T14:11:15.012Z,100030.80
2022-09-18T14:13:55.761Z,100039.40
2022-09-18T14:16:33.681Z,100026.00
2022-09-18T14:19:28.956Z,100029.20
2022-09-18T14:21:58.533Z,100021.40
2022-09-18T14:25:03.378Z,100023.00
2022-09-18T14:27:46.596Z,100018.40
2022-09-18T14:30:27.161Z,100021.40
2022-09-18T14:33:12.053Z,100022.20
2022-09-18T14:35:57.826Z,100024.40
2022-09-18T14:38:28.451Z,100026.60
2022-09-18T14:41:33.187Z,100024.80
2022-09-18T14:44:04.500Z,100032.20
2022-09-18T14:46:33.544Z,100031.80
2022-09-18T14:49:03.448Z,100033.20
2022-09-18T14:51:44.724Z,100031.20
2022-09-18T14:54:26.206Z,100040.60
2022-09-18T14:57:03.302Z,100041.20
2022-09-18T14:59:32.086Z,100041.20
2022-09-18T15:02:38.256Z,100042.60
2022-09-18T15:05:12.689Z,100038.80
2022-09-18T15:07:48.881Z,100041.80
2022-09-18T15:10:19.087Z,100038.00
2022-09-18T15:12:47.961Z,100036.40
2022-09-18T15:15:36.135Z,100033.00
2022-09-18T15:18:23.778Z,100046.60
2022-09-18T15:20:54.452Z,100041.60
2022-09-18T15:23:38.518Z,100042.60
2022-09-18T15:26:13.761Z,100042.40
2022-09-18T15:28:47.779Z,100041.00
2022-09-18T15:31:20.567Z,100042.00
2022-09-18T15:34:16.328Z,100045.60
2022-09-18T15:36:45.900Z,100041.40
2022-09-18T15:39:32.609Z,100042.80
2022-09-18T15:42:33.758Z,100040.20
2022-09-18T15:45:02.651Z,100039.60
2022-09-18T15:47:38.543Z,100035.40
2022-09-18T15:50:13.059Z,100035.80
2022-09-18T15:52:52.376Z,100035.00
2022-09-18T15:55:24.845Z,100036.80
2022-09-18T15:57:57.507Z,100035.80
2022-09-18T16:00:36.992Z,100035.20
2022-09-18T16:03:09.119Z,100040.80
2022-09-18T16:05:39.661Z,100041.60
2022-09-18T16:08:19.745Z,100040.40
2022-09-18T16:10:53.263Z,100038.80
2022-09-18T16:13:21.700Z,100039.80
2022-09-18T16:16:11.853Z,100042.00
2022-09-18T16:19:07.811Z,100038.00
2022-09-18T16:21:43.152Z,100039.60
2022-09-18T16:24:30.608Z,100043.80
2022-09-18T16:27:07.053Z,100048.40
2022-09-18T16:29:35.673Z,100052.40
2022-09-18T16:32:12.618Z,100049.00
2022-09-18T16:34:45.503Z,100046.60
2022-09-18T16:37:17.719Z,100050.00
2022-09-18T16:39:46.560Z,100047.40
2022-09-18T16:42:19.548Z,100042.00
2022-09-18T16:44:48.235Z,100041.60
2022-09-18T16:47:18.675Z,100040.60
2022-09-18T16:49:49.545Z,100042.60
2022-09-18T16:52:18.393Z,100041.80
2022-09-18T16:54:46.874Z,100047.00
2022-09-18T16:57:21.548Z,100038.60
2022-09-18T16:59:50.901Z,100041.40
2022-09-18T17:02:25.402Z,100046.40
2022-09-18T17:04:54.521Z,100041.20
2022-09-18T17:07:23.208Z,100041.00
2022-09-18T17:09:52.316Z,100045.00
2022-09-18T17:12:20.889Z,100045.20
2022-09-18T17:14:49.370Z,100049.20
2022-09-18T17:17:18.003Z,100046.80
2022-09-18T17:19:46.877Z,100047.80
2022-09-18T17:22:17.471Z,100052.20
2022-09-18T17:24:49.136Z,100055.60
2022-09-18T17:27:18.333Z,100054.00
2022-09-18T17:29:46.846Z,100065.00
2022-09-18T17:32:15.400Z,100065.20
2022-09-18T17:34:44.088Z,100064.80
2022-09-18T17:37:12.776Z,100070.20
2022-09-18T17:39:42.484Z,100067.40
2022-09-18T17:42:11.380Z,100073.40
2022-09-18T17:44:39.970Z,100079.00
2022-09-18T17:47:08.443Z,100081.60
2022-09-18T17:49:37.342Z,100077.20
2022-09-18T17:52:06.298Z,100082.20
2022-09-18T17:54:36.710Z,100082.20
2022-09-18T17:57:11.703Z,100092.00
2022-09-18T17:59:43.161Z,100092.00
2022-09-18T18:02:14.107Z,100098.40
2022-09-18T18:04:42.665Z,100094.80
2022-09-18T18:07:11.352Z,100098.20
2022-09-18T18:09:41.375Z,100094.60
2022-09-18T18:12:09.955Z,100094.00
2022-09-18T18:14:38.437Z,100101.40
2022-09-18T18:17:07.329Z,100104.00
2022-09-18T18:19:36.118Z,100108.00
2022-09-18T18:22:05.215Z,100106.00
2022-09-18T18:24:33.696Z,100106.80
2022-09-18T18:27:03.407Z,100105.20
2022-09-18T18:29:32.298Z,100111.40
2022-09-18T18:32:01.098Z,100111.80
2022-09-18T18:34:32.149Z,100111.20
2022-09-18T18:37:02.046Z,100114.80
2022-09-18T18:39:30.630Z,100115.80
2022-09-18T18:41:59.111Z,100117.60
2022-09-18T18:44:27.594Z,100123.00
2022-09-18T18:46:56.150Z,100123.20
2022-09-18T18:49:26.298Z,100120.20
2022-09-18T18:51:54.785Z,100119.40
2022-09-18T18:54:23.263Z,100124.60
2022-09-18T18:56:52.155Z,100125.80
2022-09-18T18:59:23.233Z,100128.20
2022-09-18T19:01:56.871Z,100132.20
2022-09-18T19:04:26.187Z,100128.60
2022-09-18T19:06:54.787Z,100126.80
2022-09-18T19:09:26.861Z,100130.20
2022-09-18T19:11:55.846Z,100126.20
2022-09-18T19:14:28.165Z,100134.20
2022-09-18T19:16:57.847Z,100130.40
2022-09-18T19:19:29.279Z,100125.20
2022-09-18T19:22:01.345Z,100127.20
2022-09-18T19:24:30.442Z,100127.60
2022-09-18T19:26:59.332Z,100127.20
2022-09-18T19:29:28.519Z,100130.00
2022-09-18T19:31:57.953Z,100133.40
2022-09-18T19:34:27.312Z,100127.80
2022-09-18T19:36:56.947Z,100126.20
2022-09-18T19:39:25.532Z,100133.60
2022-09-18T19:42:12.696Z,100128.80
2022-09-18T19:44:49.103Z,100135.60
2022-09-18T19:47:32.034Z,100131.60
2022-09-18T19:50:04.025Z,100132.20
2022-09-18T19:52:32.897Z,100137.80
2022-09-18T19:55:01.482Z,100137.40
2022-09-18T19:57:30.883Z,100137.00
2022-09-18T20:00:01.414Z,100140.20
2022-09-18T20:02:30.204Z,100139.40
2022-09-18T20:04:58.788Z,100147.00
2022-09-18T20:07:27.372Z,100140.80
2022-09-18T20:09:56.002Z,100143.20
2022-09-18T20:12:24.780Z,100143.20
2022-09-18T20:14:53.360Z,100138.40
2022-09-18T20:17:22.022Z,100138.60
2022-09-18T20:19:50.503Z,100142.80
2022-09-18T20:22:19.089Z,100140.20
2022-09-18T20:24:48.256Z,100140.60
2022-09-18T20:27:16.971Z,100141.00
2022-09-18T20:29:45.903Z,100144.60
2022-09-18T20:32:14.653Z,100147.20
2022-09-18T20:34:47.609Z,100142.20
2022-09-18T20:37:16.434Z,100135.00
2022-09-18T20:39:45.125Z,100141.20
2022-09-18T20:42:13.602Z,100131.40
2022-09-18T20:44:42.391Z,100137.40
2022-09-18T20:47:10.974Z,100132.20
2022-09-18T20:49:40.526Z,100133.80
2022-09-18T20:52:14.348Z,100127.40
2022-09-18T20:54:43.178Z,100127.40
2022-09-18T20:57:14.833Z,100127.20
2022-09-18T20:59:43.319Z,100132.00
2022-09-18T21:02:12.334Z,100127.60
2022-09-18T21:04:45.379Z,100134.00
2022-09-18T21:07:16.135Z,100131.80
2022-09-18T21:09:44.728Z,100128.80
2022-09-18T21:12:13.206Z,100126.00
2022-09-18T21:14:42.298Z,100128.00
2022-09-18T21:17:10.987Z,100127.00
2022-09-18T21:19:40.183Z,100129.40
2022-09-18T21:22:08.665Z,100128.20
2022-09-18T21:24:37.148Z,100128.80
2022-09-18T21:27:06.959Z,100126.20
2022-09-18T21:29:35.544Z,100129.20
2022-09-18T21:32:04.334Z,100129.40
2022-09-18T21:34:34.558Z,100130.80
2022-09-18T21:37:12.259Z,100132.80
2022-09-18T21:39:42.888Z,100131.40
2022-09-18T21:42:11.779Z,100125.40
2022-09-18T21:44:40.466Z,100128.80
2022-09-18T21:47:11.001Z,100128.60
2022-09-18T21:49:39.479Z,100125.00
2022-09-18T21:52:08.882Z,100124.00
2022-09-18T21:54:37.579Z,100122.40
2022-09-18T21:57:06.666Z,100119.20
2022-09-18T21:59:36.274Z,100115.60
2022-09-18T22:02:05.932Z,100118.20
2022-09-18T22:04:34.571Z,100120.00
2022-09-18T22:07:03.312Z,100118.80
2022-09-18T22:09:39.441Z,100121.00
2022-09-18T22:12:08.313Z,100120.20
2022-09-18T22:14:38.521Z,100122.60
2022-09-18T22:17:09.256Z,100121.60
2022-09-18T22:19:41.346Z,100127.60
2022-09-18T22:22:11.572Z,100126.20
2022-09-18T22:24:40.142Z,100129.20
2022-09-18T22:27:08.994Z,100124.40
2022-09-18T22:29:39.974Z,100122.20
2022-09-18T22:32:11.223Z,100125.00
2022-09-18T22:34:41.723Z,100130.80
2022-09-18T22:37:11.488Z,100126.20
2022-09-18T22:39:40.047Z,100122.20
2022-09-18T22:42:08.530Z,100122.40
2022-09-18T22:44:37.009Z,100121.80
2022-09-18T22:47:05.799Z,100119.40
2022-09-18T22:49:34.383Z,100121.40
2022-09-18T22:52:02.865Z,100122.00
2022-09-18T22:54:31.450Z,100123.80
2022-09-18T22:57:00.044Z,100127.80
2022-09-18T22:59:28.927Z,100127.40
2022-09-18T23:02:04.475Z,100128.40
2022-09-18T23:04:34.580Z,100133.40
2022-09-18T23:07:04.041Z,100128.40
2022-09-18T23:09:32.786Z,100126.60
2022-09-18T23:12:01.678Z,100124.20
2022-09-18T23:14:31.735Z,100124.60
2022-09-18T23:17:01.612Z,100118.80
2022-09-18T23:19:33.948Z,100119.40
2022-09-18T23:22:02.834Z,100127.00
2022-09-18T23:24:32.178Z,100119.60
2022-09-18T23:27:01.582Z,100120.80
2022-09-18T23:29:32.114Z,100121.60
2022-09-18T23:32:00.756Z,100121.80
2022-09-18T23:34:33.910Z,100121.20
2022-09-18T23:37:02.473Z,100125.00
2022-09-18T23:39:34.130Z,100121.40
2022-09-18T23:42:05.969Z,100126.40
2022-09-18T23:44:35.092Z,100131.20
2022-09-18T23:47:03.874Z,100131.80
2022-09-18T23:49:32.564Z,100132.20
2022-09-18T23:52:02.839Z,100132.20
2022-09-18T23:54:33.113Z,100133.60
2022-09-18T23:57:02.457Z,100138.60
2022-09-18T23:59:31.204Z,100136.00
